sensor_id;sensor_type;location;lat;lon;timestamp;temperature;humidity
50955;DHT22;36966;48.064;-0.792;2023-11-21T00:01:26;19.70;58.60
50955;DHT22;36966;48.064;-0.792;2023-11-21T00:03:45;19.70;58.60
50955;DHT22;36966;48.064;-0.792;2023-11-21T00:06:04;19.70;58.60
50955;DHT22;36966;48.064;-0.792;2023-11-21T00:08:27;19.60;58.60
50955;DHT22;36966;48.064;-0.792;2023-11-21T00:10:47;19.70;58.70
50955;DHT22;36966;48.064;-0.792;2023-11-21T00:13:07;19.60;58.70
50955;DHT22;36966;48.064;-0.792;2023-11-21T00:15:26;19.60;58.70
50955;DHT22;36966;48.064;-0.792;2023-11-21T00:17:45;19.60;58.80
50955;DHT22;36966;48.064;-0.792;2023-11-21T00:20:05;19.60;58.80
50955;DHT22;36966;48.064;-0.792;2023-11-21T00:22:26;19.50;58.80
50955;DHT22;36966;48.064;-0.792;2023-11-21T00:24:45;19.60;58.90
50955;DHT22;36966;48.064;-0.792;2023-11-21T00:27:04;19.50;58.90
50955;DHT22;36966;48.064;-0.792;2023-11-21T00:29:25;19.50;58.90
50955;DHT22;36966;48.064;-0.792;2023-11-21T00:31:45;19.50;58.90
50955;DHT22;36966;48.064;-0.792;2023-11-21T00:34:04;19.40;58.90
50955;DHT22;36966;48.064;-0.792;2023-11-21T00:36:24;19.50;59.00
50955;DHT22;36966;48.064;-0.792;2023-11-21T00:38:44;19.50;59.00
50955;DHT22;36966;48.064;-0.792;2023-11-21T00:41:04;19.50;59.10
50955;DHT22;36966;48.064;-0.792;2023-11-21T00:43:23;19.40;59.10
50955;DHT22;36966;48.064;-0.792;2023-11-21T00:45:43;19.40;59.10
50955;DHT22;36966;48.064;-0.792;2023-11-21T00:48:02;19.40;59.10
50955;DHT22;36966;48.064;-0.792;2023-11-21T00:50:23;19.40;59.10
50955;DHT22;36966;48.064;-0.792;2023-11-21T00:52:43;19.40;59.10
50955;DHT22;36966;48.064;-0.792;2023-11-21T00:55:02;19.40;59.20
50955;DHT22;36966;48.064;-0.792;2023-11-21T00:57:22;19.40;59.20
50955;DHT22;36966;48.064;-0.792;2023-11-21T00:59:41;19.30;59.20
50955;DHT22;36966;48.064;-0.792;2023-11-21T01:02:00;19.30;59.20
50955;DHT22;36966;48.064;-0.792;2023-11-21T01:04:20;19.30;59.30
50955;DHT22;36966;48.064;-0.792;2023-11-21T01:06:39;19.30;59.30
50955;DHT22;36966;48.064;-0.792;2023-11-21T01:08:59;19.30;59.30
50955;DHT22;36966;48.064;-0.792;2023-11-21T01:11:18;19.30;59.30
50955;DHT22;36966;48.064;-0.792;2023-11-21T01:13:38;19.30;59.40
50955;DHT22;36966;48.064;-0.792;2023-11-21T01:15:58;19.30;59.40
50955;DHT22;36966;48.064;-0.792;2023-11-21T01:18:17;19.30;59.40
50955;DHT22;36966;48.064;-0.792;2023-11-21T01:20:36;19.20;59.40
50955;DHT22;36966;48.064;-0.792;2023-11-21T01:22:56;19.20;59.40
50955;DHT22;36966;48.064;-0.792;2023-11-21T01:25:15;19.20;59.50
50955;DHT22;36966;48.064;-0.792;2023-11-21T01:27:35;19.20;59.50
50955;DHT22;36966;48.064;-0.792;2023-11-21T01:29:54;19.20;59.50
50955;DHT22;36966;48.064;-0.792;2023-11-21T01:32:13;19.20;59.50
50955;DHT22;36966;48.064;-0.792;2023-11-21T01:34:33;19.20;59.60
50955;DHT22;36966;48.064;-0.792;2023-11-21T01:36:52;19.20;59.60
50955;DHT22;36966;48.064;-0.792;2023-11-21T01:39:11;19.20;59.60
50955;DHT22;36966;48.064;-0.792;2023-11-21T01:41:34;19.20;59.70
50955;DHT22;36966;48.064;-0.792;2023-11-21T01:43:54;19.20;59.60
50955;DHT22;36966;48.064;-0.792;2023-11-21T01:46:13;19.20;59.60
50955;DHT22;36966;48.064;-0.792;2023-11-21T01:48:34;19.20;59.70
50955;DHT22;36966;48.064;-0.792;2023-11-21T01:50:54;19.20;59.70
50955;DHT22;36966;48.064;-0.792;2023-11-21T01:53:13;19.10;59.70
50955;DHT22;36966;48.064;-0.792;2023-11-21T01:55:32;19.20;59.70
50955;DHT22;36966;48.064;-0.792;2023-11-21T01:57:53;19.20;59.70
50955;DHT22;36966;48.064;-0.792;2023-11-21T02:00:13;19.10;59.80
50955;DHT22;36966;48.064;-0.792;2023-11-21T02:02:36;19.10;59.80
50955;DHT22;36966;48.064;-0.792;2023-11-21T02:04:55;19.10;59.80
50955;DHT22;36966;48.064;-0.792;2023-11-21T02:07:14;19.10;59.70
50955;DHT22;36966;48.064;-0.792;2023-11-21T02:09:34;19.10;59.80
50955;DHT22;36966;48.064;-0.792;2023-11-21T02:11:53;19.10;59.80
50955;DHT22;36966;48.064;-0.792;2023-11-21T02:14:12;19.00;59.80
50955;DHT22;36966;48.064;-0.792;2023-11-21T02:16:33;19.00;59.80
50955;DHT22;36966;48.064;-0.792;2023-11-21T02:18:52;19.10;59.80
50955;DHT22;36966;48.064;-0.792;2023-11-21T02:21:12;19.10;59.80
50955;DHT22;36966;48.064;-0.792;2023-11-21T02:23:31;19.10;59.80
50955;DHT22;36966;48.064;-0.792;2023-11-21T02:25:51;19.00;59.80
50955;DHT22;36966;48.064;-0.792;2023-11-21T02:28:10;19.00;59.80
50955;DHT22;36966;48.064;-0.792;2023-11-21T02:30:31;19.00;59.90
50955;DHT22;36966;48.064;-0.792;2023-11-21T02:32:51;19.00;59.80
50955;DHT22;36966;48.064;-0.792;2023-11-21T02:35:13;19.00;59.80
50955;DHT22;36966;48.064;-0.792;2023-11-21T02:37:32;19.00;59.80
50955;DHT22;36966;48.064;-0.792;2023-11-21T02:39:52;19.00;59.80
50955;DHT22;36966;48.064;-0.792;2023-11-21T02:42:11;19.00;59.80
50955;DHT22;36966;48.064;-0.792;2023-11-21T02:44:30;19.00;59.90
50955;DHT22;36966;48.064;-0.792;2023-11-21T02:46:50;19.00;59.80
50955;DHT22;36966;48.064;-0.792;2023-11-21T02:49:09;19.00;59.80
50955;DHT22;36966;48.064;-0.792;2023-11-21T02:51:32;19.00;59.80
50955;DHT22;36966;48.064;-0.792;2023-11-21T02:53:51;19.00;59.80
50955;DHT22;36966;48.064;-0.792;2023-11-21T02:56:11;19.00;59.80
50955;DHT22;36966;48.064;-0.792;2023-11-21T02:58:30;18.90;59.80
50955;DHT22;36966;48.064;-0.792;2023-11-21T03:00:49;19.00;59.80
50955;DHT22;36966;48.064;-0.792;2023-11-21T03:03:09;19.00;59.80
50955;DHT22;36966;48.064;-0.792;2023-11-21T03:05:28;19.00;59.80
50955;DHT22;36966;48.064;-0.792;2023-11-21T03:07:48;18.90;59.80
50955;DHT22;36966;48.064;-0.792;2023-11-21T03:10:08;18.90;59.70
50955;DHT22;36966;48.064;-0.792;2023-11-21T03:12:30;18.90;59.80
50955;DHT22;36966;48.064;-0.792;2023-11-21T03:14:49;18.90;59.80
50955;DHT22;36966;48.064;-0.792;2023-11-21T03:17:08;18.90;59.80
50955;DHT22;36966;48.064;-0.792;2023-11-21T03:19:27;18.90;59.70
50955;DHT22;36966;48.064;-0.792;2023-11-21T03:21:47;18.90;59.70
50955;DHT22;36966;48.064;-0.792;2023-11-21T03:24:06;18.90;59.70
50955;DHT22;36966;48.064;-0.792;2023-11-21T03:26:26;18.90;59.80
50955;DHT22;36966;48.064;-0.792;2023-11-21T03:28:46;18.90;59.80
50955;DHT22;36966;48.064;-0.792;2023-11-21T03:31:05;18.90;59.70
50955;DHT22;36966;48.064;-0.792;2023-11-21T03:33:25;18.80;59.70
50955;DHT22;36966;48.064;-0.792;2023-11-21T03:35:44;18.80;59.70
50955;DHT22;36966;48.064;-0.792;2023-11-21T03:38:03;18.80;59.70
50955;DHT22;36966;48.064;-0.792;2023-11-21T03:40:23;18.80;59.70
50955;DHT22;36966;48.064;-0.792;2023-11-21T03:42:42;18.80;59.80
50955;DHT22;36966;48.064;-0.792;2023-11-21T03:45:01;18.80;59.70
50955;DHT22;36966;48.064;-0.792;2023-11-21T03:47:23;18.80;59.70
50955;DHT22;36966;48.064;-0.792;2023-11-21T03:49:42;18.80;59.80
50955;DHT22;36966;48.064;-0.792;2023-11-21T03:52:01;18.80;59.70
50955;DHT22;36966;48.064;-0.792;2023-11-21T03:54:21;18.80;59.70
50955;DHT22;36966;48.064;-0.792;2023-11-21T03:56:40;18.80;59.70
50955;DHT22;36966;48.064;-0.792;2023-11-21T03:58:59;18.80;59.60
50955;DHT22;36966;48.064;-0.792;2023-11-21T04:01:22;18.80;59.70
50955;DHT22;36966;48.064;-0.792;2023-11-21T04:03:41;18.80;59.70
50955;DHT22;36966;48.064;-0.792;2023-11-21T04:06:01;18.80;59.70
50955;DHT22;36966;48.064;-0.792;2023-11-21T04:08:20;18.80;59.60
50955;DHT22;36966;48.064;-0.792;2023-11-21T04:10:39;18.70;59.60
50955;DHT22;36966;48.064;-0.792;2023-11-21T04:12:58;18.70;59.60
50955;DHT22;36966;48.064;-0.792;2023-11-21T04:15:19;18.80;59.60
50955;DHT22;36966;48.064;-0.792;2023-11-21T04:17:38;18.70;59.50
50955;DHT22;36966;48.064;-0.792;2023-11-21T04:19:57;18.80;59.50
50955;DHT22;36966;48.064;-0.792;2023-11-21T04:22:17;18.70;59.50
50955;DHT22;36966;48.064;-0.792;2023-11-21T04:24:36;18.70;59.50
50955;DHT22;36966;48.064;-0.792;2023-11-21T04:26:56;18.70;59.50
50955;DHT22;36966;48.064;-0.792;2023-11-21T04:29:15;18.80;59.50
50955;DHT22;36966;48.064;-0.792;2023-11-21T04:31:34;18.70;59.60
50955;DHT22;36966;48.064;-0.792;2023-11-21T04:33:53;18.70;59.60
50955;DHT22;36966;48.064;-0.792;2023-11-21T04:36:13;18.70;59.60
50955;DHT22;36966;48.064;-0.792;2023-11-21T04:38:32;18.70;59.50
50955;DHT22;36966;48.064;-0.792;2023-11-21T04:40:52;18.70;59.60
50955;DHT22;36966;48.064;-0.792;2023-11-21T04:43:11;18.70;59.50
50955;DHT22;36966;48.064;-0.792;2023-11-21T04:45:30;18.70;59.50
50955;DHT22;36966;48.064;-0.792;2023-11-21T04:47:49;18.70;59.50
50955;DHT22;36966;48.064;-0.792;2023-11-21T04:50:09;18.70;59.60
50955;DHT22;36966;48.064;-0.792;2023-11-21T04:52:28;18.70;59.60
50955;DHT22;36966;48.064;-0.792;2023-11-21T04:54:47;18.60;59.40
50955;DHT22;36966;48.064;-0.792;2023-11-21T04:57:07;18.60;59.40
50955;DHT22;36966;48.064;-0.792;2023-11-21T04:59:26;18.60;59.40
50955;DHT22;36966;48.064;-0.792;2023-11-21T05:01:46;18.60;59.30
50955;DHT22;36966;48.064;-0.792;2023-11-21T05:04:05;18.70;59.40
50955;DHT22;36966;48.064;-0.792;2023-11-21T05:06:25;18.70;59.30
50955;DHT22;36966;48.064;-0.792;2023-11-21T05:08:44;18.70;59.30
50955;DHT22;36966;48.064;-0.792;2023-11-21T05:11:03;18.70;59.30
50955;DHT22;36966;48.064;-0.792;2023-11-21T05:13:23;18.70;59.30
50955;DHT22;36966;48.064;-0.792;2023-11-21T05:15:46;18.70;59.30
50955;DHT22;36966;48.064;-0.792;2023-11-21T05:18:05;18.60;59.20
50955;DHT22;36966;48.064;-0.792;2023-11-21T05:20:25;18.70;59.20
50955;DHT22;36966;48.064;-0.792;2023-11-21T05:22:44;18.70;59.30
50955;DHT22;36966;48.064;-0.792;2023-11-21T05:25:04;18.60;59.30
50955;DHT22;36966;48.064;-0.792;2023-11-21T05:27:24;18.70;59.30
50955;DHT22;36966;48.064;-0.792;2023-11-21T05:29:43;18.70;59.30
50955;DHT22;36966;48.064;-0.792;2023-11-21T05:32:02;18.60;59.20
50955;DHT22;36966;48.064;-0.792;2023-11-21T05:34:21;18.60;59.20
50955;DHT22;36966;48.064;-0.792;2023-11-21T05:36:43;18.60;59.30
50955;DHT22;36966;48.064;-0.792;2023-11-21T05:39:04;18.60;59.20
50955;DHT22;36966;48.064;-0.792;2023-11-21T05:41:23;18.60;59.20
50955;DHT22;36966;48.064;-0.792;2023-11-21T05:43:42;18.60;59.20
50955;DHT22;36966;48.064;-0.792;2023-11-21T05:46:02;18.60;59.20
50955;DHT22;36966;48.064;-0.792;2023-11-21T05:48:21;18.60;59.20
50955;DHT22;36966;48.064;-0.792;2023-11-21T05:50:40;18.60;59.20
50955;DHT22;36966;48.064;-0.792;2023-11-21T05:53:00;18.60;59.20
50955;DHT22;36966;48.064;-0.792;2023-11-21T05:55:22;18.60;59.20
50955;DHT22;36966;48.064;-0.792;2023-11-21T05:57:44;18.60;59.20
50955;DHT22;36966;48.064;-0.792;2023-11-21T06:00:07;18.60;59.10
50955;DHT22;36966;48.064;-0.792;2023-11-21T06:02:44;18.60;59.00
50955;DHT22;36966;48.064;-0.792;2023-11-21T06:05:04;18.60;59.10
50955;DHT22;36966;48.064;-0.792;2023-11-21T06:07:24;18.50;59.00
50955;DHT22;36966;48.064;-0.792;2023-11-21T06:09:43;18.60;59.00
50955;DHT22;36966;48.064;-0.792;2023-11-21T06:12:03;18.50;59.00
50955;DHT22;36966;48.064;-0.792;2023-11-21T06:14:22;18.60;59.00
50955;DHT22;36966;48.064;-0.792;2023-11-21T06:16:42;18.50;59.00
50955;DHT22;36966;48.064;-0.792;2023-11-21T06:19:01;18.50;58.90
50955;DHT22;36966;48.064;-0.792;2023-11-21T06:21:20;18.50;59.00
50955;DHT22;36966;48.064;-0.792;2023-11-21T06:23:40;18.50;58.90
50955;DHT22;36966;48.064;-0.792;2023-11-21T06:25:59;18.50;58.90
50955;DHT22;36966;48.064;-0.792;2023-11-21T06:28:19;18.50;58.90
50955;DHT22;36966;48.064;-0.792;2023-11-21T06:30:38;18.50;58.90
50955;DHT22;36966;48.064;-0.792;2023-11-21T06:32:57;18.50;58.90
50955;DHT22;36966;48.064;-0.792;2023-11-21T06:35:17;18.50;58.90
50955;DHT22;36966;48.064;-0.792;2023-11-21T06:37:36;18.50;58.90
50955;DHT22;36966;48.064;-0.792;2023-11-21T06:39:55;18.50;59.00
50955;DHT22;36966;48.064;-0.792;2023-11-21T06:42:15;18.50;58.90
50955;DHT22;36966;48.064;-0.792;2023-11-21T06:44:35;18.50;59.00
50955;DHT22;36966;48.064;-0.792;2023-11-21T06:46:55;18.50;59.00
50955;DHT22;36966;48.064;-0.792;2023-11-21T06:49:14;18.50;58.90
50955;DHT22;36966;48.064;-0.792;2023-11-21T06:51:33;18.50;58.90
50955;DHT22;36966;48.064;-0.792;2023-11-21T06:53:53;18.40;58.80
50955;DHT22;36966;48.064;-0.792;2023-11-21T06:56:15;18.40;59.00
50955;DHT22;36966;48.064;-0.792;2023-11-21T06:58:35;18.50;59.00
50955;DHT22;36966;48.064;-0.792;2023-11-21T07:00:54;18.40;58.90
50955;DHT22;36966;48.064;-0.792;2023-11-21T07:03:13;18.40;58.80
50955;DHT22;36966;48.064;-0.792;2023-11-21T07:05:32;18.40;58.90
50955;DHT22;36966;48.064;-0.792;2023-11-21T07:07:51;18.40;59.00
50955;DHT22;36966;48.064;-0.792;2023-11-21T07:10:13;18.40;59.10
50955;DHT22;36966;48.064;-0.792;2023-11-21T07:12:32;18.40;59.10
50955;DHT22;36966;48.064;-0.792;2023-11-21T07:14:51;18.40;59.10
50955;DHT22;36966;48.064;-0.792;2023-11-21T07:17:11;18.40;59.00
50955;DHT22;36966;48.064;-0.792;2023-11-21T07:19:31;18.40;59.10
50955;DHT22;36966;48.064;-0.792;2023-11-21T07:21:50;18.40;59.20
50955;DHT22;36966;48.064;-0.792;2023-11-21T07:24:10;18.40;59.10
50955;DHT22;36966;48.064;-0.792;2023-11-21T07:26:30;18.40;59.00
50955;DHT22;36966;48.064;-0.792;2023-11-21T07:28:50;18.40;59.00
50955;DHT22;36966;48.064;-0.792;2023-11-21T07:31:09;18.40;59.00
50955;DHT22;36966;48.064;-0.792;2023-11-21T07:33:28;18.40;59.00
50955;DHT22;36966;48.064;-0.792;2023-11-21T07:35:47;18.40;58.90
50955;DHT22;36966;48.064;-0.792;2023-11-21T07:38:07;18.40;58.80
50955;DHT22;36966;48.064;-0.792;2023-11-21T07:40:26;18.40;58.80
50955;DHT22;36966;48.064;-0.792;2023-11-21T07:42:46;18.40;58.80
50955;DHT22;36966;48.064;-0.792;2023-11-21T07:45:06;18.30;58.60
50955;DHT22;36966;48.064;-0.792;2023-11-21T07:47:25;18.30;58.50
50955;DHT22;36966;48.064;-0.792;2023-11-21T07:49:46;18.40;58.50
50955;DHT22;36966;48.064;-0.792;2023-11-21T07:52:06;18.40;58.40
50955;DHT22;36966;48.064;-0.792;2023-11-21T07:54:25;18.30;58.40
50955;DHT22;36966;48.064;-0.792;2023-11-21T07:56:44;18.30;58.40
50955;DHT22;36966;48.064;-0.792;2023-11-21T07:59:04;18.30;58.50
50955;DHT22;36966;48.064;-0.792;2023-11-21T08:01:23;18.40;58.50
50955;DHT22;36966;48.064;-0.792;2023-11-21T08:03:42;18.40;58.40
50955;DHT22;36966;48.064;-0.792;2023-11-21T08:06:03;18.30;58.50
50955;DHT22;36966;48.064;-0.792;2023-11-21T08:08:22;18.40;58.40
50955;DHT22;36966;48.064;-0.792;2023-11-21T08:10:42;18.40;58.40
50955;DHT22;36966;48.064;-0.792;2023-11-21T08:13:02;18.40;58.40
50955;DHT22;36966;48.064;-0.792;2023-11-21T08:15:22;18.40;58.40
50955;DHT22;36966;48.064;-0.792;2023-11-21T08:17:41;18.40;58.40
50955;DHT22;36966;48.064;-0.792;2023-11-21T08:20:01;18.40;58.40
50955;DHT22;36966;48.064;-0.792;2023-11-21T08:22:21;18.40;58.40
50955;DHT22;36966;48.064;-0.792;2023-11-21T08:24:42;18.50;58.30
50955;DHT22;36966;48.064;-0.792;2023-11-21T08:27:01;18.50;58.40
50955;DHT22;36966;48.064;-0.792;2023-11-21T08:29:20;18.50;58.50
50955;DHT22;36966;48.064;-0.792;2023-11-21T08:31:40;18.50;58.50
50955;DHT22;36966;48.064;-0.792;2023-11-21T08:34:00;18.50;58.60
50955;DHT22;36966;48.064;-0.792;2023-11-21T08:36:21;18.50;58.60
50955;DHT22;36966;48.064;-0.792;2023-11-21T08:38:41;18.50;58.60
50955;DHT22;36966;48.064;-0.792;2023-11-21T08:41:01;18.50;58.60
50955;DHT22;36966;48.064;-0.792;2023-11-21T08:43:21;18.60;58.50
50955;DHT22;36966;48.064;-0.792;2023-11-21T08:45:40;18.60;58.50
50955;DHT22;36966;48.064;-0.792;2023-11-21T08:48:00;18.60;58.50
50955;DHT22;36966;48.064;-0.792;2023-11-21T08:50:19;18.60;58.50
50955;DHT22;36966;48.064;-0.792;2023-11-21T08:52:38;18.60;58.50
50955;DHT22;36966;48.064;-0.792;2023-11-21T08:54:59;18.60;58.50
50955;DHT22;36966;48.064;-0.792;2023-11-21T08:57:22;18.60;58.50
50955;DHT22;36966;48.064;-0.792;2023-11-21T08:59:41;18.60;58.50
50955;DHT22;36966;48.064;-0.792;2023-11-21T09:02:00;18.70;58.60
50955;DHT22;36966;48.064;-0.792;2023-11-21T09:04:20;18.60;58.50
50955;DHT22;36966;48.064;-0.792;2023-11-21T09:06:39;18.60;58.50
50955;DHT22;36966;48.064;-0.792;2023-11-21T09:08:58;18.60;58.50
50955;DHT22;36966;48.064;-0.792;2023-11-21T09:11:17;18.60;58.50
50955;DHT22;36966;48.064;-0.792;2023-11-21T09:13:37;18.60;58.50
50955;DHT22;36966;48.064;-0.792;2023-11-21T09:15:57;18.60;58.50
50955;DHT22;36966;48.064;-0.792;2023-11-21T09:18:16;18.50;58.50
50955;DHT22;36966;48.064;-0.792;2023-11-21T09:20:35;18.60;58.50
50955;DHT22;36966;48.064;-0.792;2023-11-21T09:22:55;18.60;58.50
50955;DHT22;36966;48.064;-0.792;2023-11-21T09:25:15;18.60;58.40
50955;DHT22;36966;48.064;-0.792;2023-11-21T09:27:34;18.60;58.50
50955;DHT22;36966;48.064;-0.792;2023-11-21T09:29:57;18.60;58.30
50955;DHT22;36966;48.064;-0.792;2023-11-21T09:32:17;18.50;58.40
50955;DHT22;36966;48.064;-0.792;2023-11-21T09:34:37;18.60;58.40
50955;DHT22;36966;48.064;-0.792;2023-11-21T09:36:57;18.60;58.30
50955;DHT22;36966;48.064;-0.792;2023-11-21T09:39:17;18.50;58.10
50955;DHT22;36966;48.064;-0.792;2023-11-21T09:44:02;18.50;58.50
50955;DHT22;36966;48.064;-0.792;2023-11-21T09:46:26;18.50;58.70
50955;DHT22;36966;48.064;-0.792;2023-11-21T09:48:48;18.50;58.80
50955;DHT22;36966;48.064;-0.792;2023-11-21T09:51:09;18.50;58.90
50955;DHT22;36966;48.064;-0.792;2023-11-21T09:53:30;18.50;59.10
50955;DHT22;36966;48.064;-0.792;2023-11-21T09:55:51;18.60;59.10
50955;DHT22;36966;48.064;-0.792;2023-11-21T09:58:11;18.60;59.50
50955;DHT22;36966;48.064;-0.792;2023-11-21T10:00:33;18.70;60.10
50955;DHT22;36966;48.064;-0.792;2023-11-21T10:02:53;18.70;59.60
50955;DHT22;36966;48.064;-0.792;2023-11-21T10:05:12;18.70;59.30
50955;DHT22;36966;48.064;-0.792;2023-11-21T10:07:32;18.70;59.20
50955;DHT22;36966;48.064;-0.792;2023-11-21T10:09:53;18.80;59.10
50955;DHT22;36966;48.064;-0.792;2023-11-21T10:12:16;18.70;59.00
50955;DHT22;36966;48.064;-0.792;2023-11-21T10:14:37;18.80;59.00
50955;DHT22;36966;48.064;-0.792;2023-11-21T10:17:00;18.80;58.90
50955;DHT22;36966;48.064;-0.792;2023-11-21T10:19:20;18.80;58.80
50955;DHT22;36966;48.064;-0.792;2023-11-21T10:21:40;18.80;58.80
50955;DHT22;36966;48.064;-0.792;2023-11-21T10:23:59;18.80;58.80
50955;DHT22;36966;48.064;-0.792;2023-11-21T10:26:18;18.80;58.80
50955;DHT22;36966;48.064;-0.792;2023-11-21T10:28:40;18.70;58.80
50955;DHT22;36966;48.064;-0.792;2023-11-21T10:30:59;18.80;58.70
50955;DHT22;36966;48.064;-0.792;2023-11-21T10:33:18;18.70;58.80
50955;DHT22;36966;48.064;-0.792;2023-11-21T10:35:46;18.80;58.70
50955;DHT22;36966;48.064;-0.792;2023-11-21T10:38:13;18.80;58.70
50955;DHT22;36966;48.064;-0.792;2023-11-21T10:40:33;18.70;58.70
50955;DHT22;36966;48.064;-0.792;2023-11-21T10:42:52;18.70;58.70
50955;DHT22;36966;48.064;-0.792;2023-11-21T10:45:12;18.70;58.70
50955;DHT22;36966;48.064;-0.792;2023-11-21T10:47:33;18.70;58.70
50955;DHT22;36966;48.064;-0.792;2023-11-21T10:49:54;18.70;58.70
50955;DHT22;36966;48.064;-0.792;2023-11-21T10:52:13;18.70;58.70
50955;DHT22;36966;48.064;-0.792;2023-11-21T10:54:36;18.70;58.80
50955;DHT22;36966;48.064;-0.792;2023-11-21T10:56:57;18.70;58.70
50955;DHT22;36966;48.064;-0.792;2023-11-21T10:59:17;18.70;58.70
50955;DHT22;36966;48.064;-0.792;2023-11-21T11:01:37;18.70;58.70
50955;DHT22;36966;48.064;-0.792;2023-11-21T11:03:56;18.70;58.70
50955;DHT22;36966;48.064;-0.792;2023-11-21T11:06:16;18.70;58.70
50955;DHT22;36966;48.064;-0.792;2023-11-21T11:08:36;18.70;58.70
50955;DHT22;36966;48.064;-0.792;2023-11-21T11:10:56;18.70;58.70
50955;DHT22;36966;48.064;-0.792;2023-11-21T11:13:17;18.70;58.70
50955;DHT22;36966;48.064;-0.792;2023-11-21T11:15:37;18.70;58.60
50955;DHT22;36966;48.064;-0.792;2023-11-21T11:17:56;18.70;58.60
50955;DHT22;36966;48.064;-0.792;2023-11-21T11:20:16;18.70;58.70
50955;DHT22;36966;48.064;-0.792;2023-11-21T11:25:40;18.70;60.10
50955;DHT22;36966;48.064;-0.792;2023-11-21T11:30:11;18.70;59.60
50955;DHT22;36966;48.064;-0.792;2023-11-21T11:35:01;18.70;59.40
50955;DHT22;36966;48.064;-0.792;2023-11-21T11:37:22;18.70;59.30
50955;DHT22;36966;48.064;-0.792;2023-11-21T11:39:42;18.70;59.30
50955;DHT22;36966;48.064;-0.792;2023-11-21T11:42:14;18.70;59.20
50955;DHT22;36966;48.064;-0.792;2023-11-21T11:47:10;18.70;59.10
50955;DHT22;36966;48.064;-0.792;2023-11-21T11:49:32;18.70;59.10
50955;DHT22;36966;48.064;-0.792;2023-11-21T11:54:37;18.70;59.00
50955;DHT22;36966;48.064;-0.792;2023-11-21T11:56:57;18.70;58.90
50955;DHT22;36966;48.064;-0.792;2023-11-21T11:59:17;18.80;58.90
50955;DHT22;36966;48.064;-0.792;2023-11-21T12:01:37;18.70;58.90
50955;DHT22;36966;48.064;-0.792;2023-11-21T12:06:38;18.80;58.90
50955;DHT22;36966;48.064;-0.792;2023-11-21T12:09:00;18.80;58.80
50955;DHT22;36966;48.064;-0.792;2023-11-21T12:11:20;18.70;58.80
50955;DHT22;36966;48.064;-0.792;2023-11-21T12:13:39;18.80;58.80
50955;DHT22;36966;48.064;-0.792;2023-11-21T12:15:58;18.70;58.70
50955;DHT22;36966;48.064;-0.792;2023-11-21T12:18:17;18.70;58.80
50955;DHT22;36966;48.064;-0.792;2023-11-21T12:20:37;18.70;58.80
50955;DHT22;36966;48.064;-0.792;2023-11-21T12:23:01;18.70;58.80
50955;DHT22;36966;48.064;-0.792;2023-11-21T12:25:21;18.70;58.80
50955;DHT22;36966;48.064;-0.792;2023-11-21T12:27:40;18.70;58.70
50955;DHT22;36966;48.064;-0.792;2023-11-21T12:30:00;18.70;58.70
50955;DHT22;36966;48.064;-0.792;2023-11-21T12:32:19;18.70;58.60
50955;DHT22;36966;48.064;-0.792;2023-11-21T12:34:40;18.70;58.70
50955;DHT22;36966;48.064;-0.792;2023-11-21T12:36:59;18.70;58.70
50955;DHT22;36966;48.064;-0.792;2023-11-21T12:39:18;18.70;58.70
50955;DHT22;36966;48.064;-0.792;2023-11-21T12:41:40;18.70;58.60
50955;DHT22;36966;48.064;-0.792;2023-11-21T12:43:59;18.70;58.60
50955;DHT22;36966;48.064;-0.792;2023-11-21T12:46:19;18.70;58.60
50955;DHT22;36966;48.064;-0.792;2023-11-21T12:48:40;18.70;58.60
50955;DHT22;36966;48.064;-0.792;2023-11-21T12:51:04;18.70;58.70
50955;DHT22;36966;48.064;-0.792;2023-11-21T12:53:24;18.70;58.60
50955;DHT22;36966;48.064;-0.792;2023-11-21T12:55:44;18.70;58.60
50955;DHT22;36966;48.064;-0.792;2023-11-21T12:58:09;18.70;58.50
50955;DHT22;36966;48.064;-0.792;2023-11-21T13:00:32;18.70;58.60
50955;DHT22;36966;48.064;-0.792;2023-11-21T13:02:53;18.70;58.50
50955;DHT22;36966;48.064;-0.792;2023-11-21T13:05:13;18.70;58.50
50955;DHT22;36966;48.064;-0.792;2023-11-21T13:07:41;18.70;58.50
50955;DHT22;36966;48.064;-0.792;2023-11-21T13:10:06;18.70;58.40
50955;DHT22;36966;48.064;-0.792;2023-11-21T13:12:26;18.70;58.50
50955;DHT22;36966;48.064;-0.792;2023-11-21T13:14:46;18.70;58.50
50955;DHT22;36966;48.064;-0.792;2023-11-21T13:17:05;18.70;58.40
50955;DHT22;36966;48.064;-0.792;2023-11-21T13:19:25;18.70;58.40
50955;DHT22;36966;48.064;-0.792;2023-11-21T13:21:46;18.70;58.40
50955;DHT22;36966;48.064;-0.792;2023-11-21T13:24:05;18.70;58.30
50955;DHT22;36966;48.064;-0.792;2023-11-21T13:26:25;18.70;58.20
50955;DHT22;36966;48.064;-0.792;2023-11-21T13:28:44;18.70;58.30
50955;DHT22;36966;48.064;-0.792;2023-11-21T13:31:06;18.70;58.20
50955;DHT22;36966;48.064;-0.792;2023-11-21T13:33:28;18.70;58.20
50955;DHT22;36966;48.064;-0.792;2023-11-21T13:35:48;18.70;58.10
50955;DHT22;36966;48.064;-0.792;2023-11-21T13:38:10;18.80;58.00
50955;DHT22;36966;48.064;-0.792;2023-11-21T13:40:29;18.70;58.00
50955;DHT22;36966;48.064;-0.792;2023-11-21T13:42:49;18.70;58.10
50955;DHT22;36966;48.064;-0.792;2023-11-21T13:45:12;18.70;58.00
50955;DHT22;36966;48.064;-0.792;2023-11-21T13:47:31;18.70;58.10
50955;DHT22;36966;48.064;-0.792;2023-11-21T13:49:53;18.70;58.10
50955;DHT22;36966;48.064;-0.792;2023-11-21T13:52:12;18.70;58.00
50955;DHT22;36966;48.064;-0.792;2023-11-21T13:54:35;18.70;58.00
50955;DHT22;36966;48.064;-0.792;2023-11-21T13:56:54;18.70;58.00
50955;DHT22;36966;48.064;-0.792;2023-11-21T13:59:14;18.70;57.90
50955;DHT22;36966;48.064;-0.792;2023-11-21T14:01:44;18.70;57.90
50955;DHT22;36966;48.064;-0.792;2023-11-21T14:04:19;18.70;57.90
50955;DHT22;36966;48.064;-0.792;2023-11-21T14:06:48;18.70;57.90
50955;DHT22;36966;48.064;-0.792;2023-11-21T14:09:08;18.70;57.90
50955;DHT22;36966;48.064;-0.792;2023-11-21T14:11:27;18.70;57.90
50955;DHT22;36966;48.064;-0.792;2023-11-21T14:13:47;18.70;57.80
50955;DHT22;36966;48.064;-0.792;2023-11-21T14:16:08;18.70;57.80
50955;DHT22;36966;48.064;-0.792;2023-11-21T14:18:29;18.70;57.80
50955;DHT22;36966;48.064;-0.792;2023-11-21T14:21:09;18.70;57.80
50955;DHT22;36966;48.064;-0.792;2023-11-21T14:23:29;18.70;57.80
50955;DHT22;36966;48.064;-0.792;2023-11-21T14:25:49;18.70;57.70
50955;DHT22;36966;48.064;-0.792;2023-11-21T14:28:09;18.70;57.70
50955;DHT22;36966;48.064;-0.792;2023-11-21T14:30:30;18.70;57.70
50955;DHT22;36966;48.064;-0.792;2023-11-21T14:32:54;18.60;57.70
50955;DHT22;36966;48.064;-0.792;2023-11-21T14:35:14;18.60;57.60
50955;DHT22;36966;48.064;-0.792;2023-11-21T14:37:33;18.60;57.70
50955;DHT22;36966;48.064;-0.792;2023-11-21T14:39:53;18.60;57.70
50955;DHT22;36966;48.064;-0.792;2023-11-21T14:42:13;18.60;57.80
50955;DHT22;36966;48.064;-0.792;2023-11-21T14:44:34;18.60;57.80
50955;DHT22;36966;48.064;-0.792;2023-11-21T14:46:57;18.60;57.80
50955;DHT22;36966;48.064;-0.792;2023-11-21T14:49:17;18.60;57.80